Pagina principale
METAR-TAF:

METAR-TAF

Aeroporti :

Aerodromo Hinterstoisser-Zeltweg

Zeltweg, Austria

latitudine: 47-12N, longitudine: 014-45E, altezza: 677 m

Osservazione

Il bollettino è stato emesso 26 minuti fa, alle 03:50 UTC
Vento 2 kt da direzioni variabili
Temperature 2°C
Umidità 80%
Pressione 1027 hPa
pioggia debole

METAR: LOXZ 270350Z VRB02KT 10KM -RA SCT052SC BKN070SC 02/M01 Q1027

Ora: 05:16 (04:16 UTC)

Previsione

Il bollettino è stato emesso 17 ore e 1 minuti fa, alle 11:15 UTC
Previsione valida dal 26 alle 12 UTC al 26 alle 21 UTC
Vento 3 kt da direzioni variabili
Visibilità 10 km o più
Poco nuvoloso ad un'altezza di 30000 ft
Evoluzione graduale
dal 26 alle 16 UTC al 26 alle 19 UTC
Poco nuvoloso ad un'altezza di 5000 ft
Nubi sparse ad un'altezza di 12000 ft
Nuvoloso ad un'altezza di 28000 ft

TAF: LOXZ 261115Z 2612/2621 VRB03KT 9999 FEW300 BECMG 2616/2619 FEW050 SCT120 BKN280

Osservazioni e previsioni meteorologiche di più di 4000 aeroporti (messaggi METAR e TAF).

Le stazioni disponibili sono rappresentate dai dischi gialli e rossi sulla carta.

Puntare il mouse per vedere il nome della stazione.

Clicca sopra per visualizzare le osservazioni e previsioni meteorologiche.

Per cambiare la mappa : fare clic sui pulsanti verdi con una croce nera per ingrandire, il pulsante verde con un trattino per diminuire, o sulla freccia verde per le mappe adiacenti.


METAR-TAF: